Time;durP1;ratioP1;P1;durP2;ratioP2;P2;SDS_P1;SDS_P2;PMS_P1;PMS_P2;Temp;Humidity;BMP_temperature;BMP_pressure;BME280_temperature;BME280_humidity;BME280_pressure;Samples;Min_cycle;Max_cycle;Signal;HPM_P1;HPM_P2
2021/11/12 00:02:38;;;;;;;;;;;;;;;;;;2203753;59;94860;-74
2021/11/12 00:13:31;;;;;;;;;;;;;;;;;;2205293;67;30268;-74
2021/11/12 00:16:07;;;;;;;;;;;;;;;;;;2205662;59;44940;-74
2021/11/12 00:18:42;;;;;;;;;;;;;;;;;;2204727;59;109708;-73
2021/11/12 00:21:15;;;;;;;;;;;;;;;;;;2206007;67;44763;-73
2021/11/12 00:23:49;;;;;;;;;;;;;;;;;;2205825;59;19876;-74
2021/11/12 00:26:22;;;;;;;;;;;;;;;;;;2206033;59;21905;-74
2021/11/12 00:28:58;;;;;;;;;;;;;;;;;;2206666;67;31616;-74
2021/11/12 00:31:40;;;;;;;;;;;;;;;;;;2206000;67;45355;-74
2021/11/12 00:34:47;;;;;;;;;;;;;;;;;;2206339;59;22339;-74
2021/11/12 00:37:27;;;;;;;;;;;;;;;;;;2205022;59;79711;-74
2021/11/12 00:40:05;;;;;;;;;;;;;;;;;;2204686;67;71415;-74
2021/11/12 00:42:42;;;;;;;;;;;;;;;;;;2205841;59;20188;-74
2021/11/12 00:45:18;;;;;;;;;;;;;;;;;;2206884;59;38817;-74
2021/11/12 00:47:57;;;;;;;;;;;;;;;;;;2205165;67;18921;-73
2021/11/12 00:50:54;;;;;;;;;;;;;;;;;;2204660;63;32486;-73
2021/11/12 00:56:16;;;;;;;;;;;;;;;;;;2205961;59;46690;-73
2021/11/12 00:58:49;;;;;;;;;;;;;;;;;;2207769;59;16599;-75
2021/11/12 01:01:24;;;;;;;;;;;;;;;;;;2207658;59;24986;-74
2021/11/12 01:04:01;;;;;;;;;;;;;;;;;;2206795;59;17274;-74
2021/11/12 01:06:35;;;;;;;;;;;;;;;;;;2206537;63;27201;-74
2021/11/12 01:09:09;;;;;;;;;;;;;;;;;;2206958;59;57168;-74
2021/11/12 01:11:44;;;;;;;;;;;;;;;;;;2207152;59;23924;-74
2021/11/12 01:14:19;;;;;;;;;;;;;;;;;;2205504;64;15836;-74
2021/11/12 01:16:53;;;;;;;;;;;;;;;;;;2206425;59;27370;-74
2021/11/12 01:19:29;;;;;;;;;;;;;;;;;;2205183;59;23635;-74
2021/11/12 01:22:03;;;;;;;;;;;;;;;;;;2205515;63;21434;-74
2021/11/12 01:24:36;;;;;;;;;;;;;;;;;;2205942;59;51185;-74
2021/11/12 01:27:10;;;;;;;;;;;;;;;;;;2205556;59;27581;-74
2021/11/12 01:29:43;;;;;;;;;;;;;;;;;;2205371;64;31243;-74
2021/11/12 01:32:23;;;;;;;;;;;;;;;;;;2205526;59;71459;-74
2021/11/12 01:35:00;;;;;;;;;;;;;;;;;;2207399;59;17147;-74
2021/11/12 01:37:34;;;;;;;;;;;;;;;;;;2203879;67;69446;-74
2021/11/12 01:40:17;;;;;;;;;;;;;;;;;;2204599;59;66096;-74
2021/11/12 01:43:00;;;;;;;;;;;;;;;;;;2207442;67;23254;-73
2021/11/12 01:45:49;;;;;;;;;;;;;;;;;;2205820;59;28633;-73
2021/11/12 01:51:22;;;;;;;;;;;;;;;;;;2205715;63;22569;-73
2021/11/12 01:54:08;;;;;;;;;;;;;;;;;;2206042;67;15467;-74
2021/11/12 01:56:43;;;;;;;;;;;;;;;;;;2205732;59;40117;-73
2021/11/12 01:59:16;;;;;;;;;;;;;;;;;;2206049;62;21726;-74
2021/11/12 02:01:52;;;;;;;;;;;;;;;;;;2206870;67;26514;-74
2021/11/12 02:04:28;;;;;;;;;;;;;;;;;;2204332;59;115178;-74
2021/11/12 02:07:05;;;;;;;;;;;;;;;;;;2207007;67;16048;-73
2021/11/12 02:09:47;;;;;;;;;;;;;;;;;;2205589;59;47952;-74
2021/11/12 02:12:24;;;;;;;;;;;;;;;;;;2204123;59;83977;-74
2021/11/12 02:14:59;;;;;;;;;;;;;;;;;;2205495;59;38917;-73
2021/11/12 02:17:35;;;;;;;;;;;;;;;;;;2204395;59;101574;-73
2021/11/12 02:20:13;;;;;;;;;;;;;;;;;;2204793;59;29840;-73
2021/11/12 02:22:54;;;;;;;;;;;;;;;;;;2205762;59;36304;-73
2021/11/12 02:25:32;;;;;;;;;;;;;;;;;;2205276;63;47485;-74
2021/11/12 02:28:08;;;;;;;;;;;;;;;;;;2206171;67;17132;-74
2021/11/12 02:30:49;;;;;;;;;;;;;;;;;;2203704;59;59378;-75
2021/11/12 02:33:23;;;;;;;;;;;;;;;;;;2205463;67;26589;-74
2021/11/12 02:36:03;;;;;;;;;;;;;;;;;;2167425;59;2595835;-74
2021/11/12 02:38:42;;;;;;;;;;;;;;;;;;2203503;59;108237;-74
2021/11/12 02:41:21;;;;;;;;;;;;;;;;;;2204964;59;22465;-73
2021/11/12 02:43:55;;;;;;;;;;;;;;;;;;2205923;59;27473;-74
2021/11/12 02:46:30;;;;;;;;;;;;;;;;;;2207561;53;15345;-69
2021/11/12 02:49:03;;;;;;;;;;;;;;;;;;2204772;59;17199;-70
2021/11/12 02:51:38;;;;;;;;;;;;;;;;;;2205028;59;24528;-69
2021/11/12 02:54:14;;;;;;;;;;;;;;;;;;2204372;63;19976;-70
2021/11/12 02:56:50;;;;;;;;;;;;;;;;;;2203855;63;22145;-70
2021/11/12 02:59:23;;;;;;;;;;;;;;;;;;2203358;59;25026;-70
2021/11/12 03:02:03;;;;;;;;;;;;;;;;;;2202672;59;16559;-69
2021/11/12 03:04:36;;;;;;;;;;;;;;;;;;2202235;59;21668;-69
2021/11/12 03:07:09;;;;;;;;;;;;;;;;;;2202967;59;27303;-70
2021/11/12 03:09:45;;;;;;;;;;;;;;;;;;2203395;59;17079;-69
2021/11/12 03:12:18;;;;;;;;;;;;;;;;;;2199606;59;15662;-70
2021/11/12 03:14:51;;;;;;;;;;;;;;;;;;2203138;59;16382;-69
2021/11/12 03:17:25;;;;;;;;;;;;;;;;;;2203337;59;16656;-70
2021/11/12 03:19:58;;;;;;;;;;;;;;;;;;2202040;59;15657;-69
2021/11/12 03:22:36;;;;;;;;;;;;;;;;;;2200247;59;25585;-70
2021/11/12 03:25:21;;;;;;;;;;;;;;;;;;2202435;59;30925;-70
2021/11/12 03:28:04;;;;;;;;;;;;;;;;;;2200644;59;30538;-69
2021/11/12 03:31:03;;;;;;;;;;;;;;;;;;2201613;67;24201;-70
2021/11/12 04:02:04;;;;;;;;;;;;;;;;;;2202372;59;16214;-70
2021/11/12 04:04:50;;;;;;;;;;;;;;;;;;2202744;67;15047;-69
2021/11/12 04:07:34;;;;;;;;;;;;;;;;;;2203625;67;29946;-69
2021/11/12 04:18:44;;;;;;;;;;;;;;;;;;2202782;59;13864;-69
2021/11/12 04:21:35;;;;;;;;;;;;;;;;;;2203856;59;19206;-69
2021/11/12 05:02:44;;;;;;;;;;;;;;;;;;2191797;59;13892;-69
2021/11/12 05:10:29;;;;;;;;;;;;;;;;;;2202036;59;18600;-69
2021/11/12 05:44:19;;;;;;;;;;;;;;;;;;2203204;67;21773;-69
2021/11/12 05:47:01;;;;;;;;;;;;;;;;;;2204165;59;28233;-69
2021/11/12 05:49:44;;;;;;;;;;;;;;;;;;2204255;59;16370;-69
2021/11/12 05:55:03;;;;;;;;;;;;;;;;;;2199961;64;21869;-69
2021/11/12 05:55:10;;;;;;;;;;;;;;;;;;2198974;59;15936;-69
2021/11/12 05:57:46;;;;;;;;;;;;;;;;;;2201814;59;14933;-69
2021/11/12 06:00:20;;;;;;;;;;;;;;;;;;2201876;63;21817;-69
2021/11/12 06:02:53;;;;;;;;;;;;;;;;;;2201902;59;32736;-69
2021/11/12 06:05:27;;;;;;;;;;;;;;;;;;2204547;67;14492;-69
2021/11/12 06:08:00;;;;;;;;;;;;;;;;;;2203402;59;15992;-69
2021/11/12 06:10:33;;;;;;;;;;;;;;;;;;2201526;59;18391;-69
2021/11/12 06:13:09;;;;;;;;;;;;;;;;;;2199229;59;16098;-69
2021/11/12 06:15:42;;;;;;;;;;;;;;;;;;2202383;59;15261;-69
2021/11/12 06:18:15;;;;;;;;;;;;;;;;;;2201295;59;16378;-70
2021/11/12 06:20:49;;;;;;;;;;;;;;;;;;2202023;59;20176;-69
2021/11/12 06:23:22;;;;;;;;;;;;;;;;;;2203669;59;16170;-69
2021/11/12 06:25:55;;;;;;;;;;;;;;;;;;2203876;59;14731;-69
2021/11/12 06:28:32;;;;;;;;;;;;;;;;;;2201858;59;19314;-69
2021/11/12 06:31:06;;;;;;;;;;;;;;;;;;2201714;59;15289;-69
2021/11/12 06:33:39;;;;;;;;;;;;;;;;;;2200819;67;30320;-70
2021/11/12 06:36:12;;;;;;;;;;;;;;;;;;2201727;59;27385;-69
2021/11/12 06:38:45;;;;;;;;;;;;;;;;;;2202126;59;16890;-69
2021/11/12 06:41:27;;;;;;;;;;;;;;;;;;2197993;59;23098;-69
2021/11/12 06:44:23;;;;;;;;;;;;;;;;;;2200151;67;30730;-69
2021/11/12 06:49:52;;;;;;;;;;;;;;;;;;2203932;59;18622;-69
2021/11/12 06:52:27;;;;;;;;;;;;;;;;;;2200755;59;19002;-69
2021/11/12 06:55:02;;;;;;;;;;;;;;;;;;2200488;64;18282;-69
2021/11/12 06:57:35;;;;;;;;;;;;;;;;;;2200309;59;14104;-69
2021/11/12 07:00:14;;;;;;;;;;;;;;;;;;2199296;64;18376;-70
2021/11/12 07:02:47;;;;;;;;;;;;;;;;;;2204225;67;19470;-69
2021/11/12 07:05:21;;;;;;;;;;;;;;;;;;2201913;67;21564;-69
2021/11/12 07:07:55;;;;;;;;;;;;;;;;;;2202896;59;26399;-69
2021/11/12 07:10:28;;;;;;;;;;;;;;;;;;2201485;59;22050;-69
2021/11/12 07:13:01;;;;;;;;;;;;;;;;;;2203470;59;20794;-69
2021/11/12 07:15:37;;;;;;;;;;;;;;;;;;2202404;59;18344;-69
2021/11/12 07:18:10;;;;;;;;;;;;;;;;;;2202719;59;26494;-69
2021/11/12 07:20:43;;;;;;;;;;;;;;;;;;2204413;67;16399;-69
2021/11/12 07:23:19;;;;;;;;;;;;;;;;;;2203982;59;26739;-69
2021/11/12 07:25:52;;;;;;;;;;;;;;;;;;2203817;59;17079;-69
2021/11/12 07:28:27;;;;;;;;;;;;;;;;;;2200067;59;16333;-70
2021/11/12 07:31:03;;;;;;;;;;;;;;;;;;2200817;59;18378;-69
2021/11/12 07:33:38;;;;;;;;;;;;;;;;;;2203190;59;15829;-69
2021/11/12 07:36:17;;;;;;;;;;;;;;;;;;2199713;59;20599;-69
2021/11/12 07:38:53;;;;;;;;;;;;;;;;;;2199278;59;15199;-69
2021/11/12 07:45:00;;;;;;;;;;;;;;;;;;2189941;59;20810;-70
2021/11/12 07:47:36;;;;;;;;;;;;;;;;;;2203338;59;22544;-69
2021/11/12 07:50:12;;;;;;;;;;;;;;;;;;2200616;59;25426;-69
2021/11/12 07:52:46;;;;;;;;;;;;;;;;;;2201785;63;18567;-69
2021/11/12 07:55:19;;;;;;;;;;;;;;;;;;2200870;59;28930;-69
2021/11/12 07:57:53;;;;;;;;;;;;;;;;;;2201302;63;15059;-70
2021/11/12 08:00:26;;;;;;;;;;;;;;;;;;2200415;67;17219;-69
2021/11/12 08:03:02;;;;;;;;;;;;;;;;;;2197971;59;14928;-70
2021/11/12 08:05:38;;;;;;;;;;;;;;;;;;2199764;59;19872;-70
2021/11/12 08:08:14;;;;;;;;;;;;;;;;;;2199740;59;27882;-70
2021/11/12 08:10:51;;;;;;;;;;;;;;;;;;2201471;59;27918;-69
2021/11/12 08:13:33;;;;;;;;;;;;;;;;;;2201829;59;17298;-69
2021/11/12 08:19:10;;;;;;;;;;;;;;;;;;2223407;66;1260;-69
2021/11/12 08:21:49;;;;;;;;;;;;;;;;;;2224490;59;1107;-69
2021/11/12 08:24:32;;;;;;;;;;;;;;;;;;2221130;59;1668;-69
2021/11/12 08:27:16;;;;;;;;;;;;;;;;;;2219096;66;1242;-69
2021/11/12 08:29:58;;;;;;;;;;;;;;;;;;2219066;58;2089;-69
2021/11/12 08:35:30;;;;;;;;;;;;;;;;;;2219803;59;1363;-69
2021/11/12 08:41:04;;;;;;;;;;;;;;;;;;2219648;58;2441;-69
2021/11/12 08:43:42;;;;;;;;;;;;;;;;;;2217075;58;1732;-69
2021/11/12 08:46:25;;;;;;;;;;;;;;;;;;2222806;58;3616;-73
2021/11/12 08:49:02;;;;;;;;;;;;;;;;;;2222731;58;2258;-74
2021/11/12 08:51:40;;;;;;;;;;;;;;;;;;2223564;58;1826;-73
2021/11/12 08:54:14;;;;;;;;;;;;;;;;;;2221209;58;1721;-73
2021/11/12 08:56:47;;;;;;;;;;;;;;;;;;2224384;66;1992;-74
2021/11/12 08:59:21;;;;;;;;;;;;;;;;;;2225756;58;1239;-74
2021/11/12 09:01:54;;;;;;;;;;;;;;;;;;2224840;58;2295;-74
2021/11/12 09:04:27;;;;;;;;;;;;;;;;;;2224444;58;1837;-74
2021/11/12 09:07:05;;;;;;;;;;;;;;;;;;2222386;58;1281;-74
2021/11/12 09:09:39;;;;;;;;;;;;;;;;;;2222359;58;1761;-73
2021/11/12 09:12:14;;;;;;;;;;;;;;;;;;2223556;58;1703;-73
2021/11/12 09:14:49;;;;;;;;;;;;;;;;;;2224157;66;1032;-74
2021/11/12 09:17:26;;;;;;;;;;;;;;;;;;2224885;58;2634;-74
2021/11/12 09:20:01;;;;;;;;;;;;;;;;;;2222773;58;2636;-74
2021/11/12 09:22:37;;;;;;;;;;;;;;;;;;2223291;58;1386;-74
2021/11/12 09:25:11;;;;;;;;;;;;;;;;;;2225258;58;1314;-74
2021/11/12 09:27:45;;;;;;;;;;;;;;;;;;2223119;58;1914;-74
2021/11/12 09:30:22;;;;;;;;;;;;;;;;;;2222349;58;2057;-74
2021/11/12 09:32:57;;;;;;;;;;;;;;;;;;2218701;59;1553;-74
2021/11/12 09:35:30;;;;;;;;;;;;;;;;;;2221444;58;1441;-74
2021/11/12 09:38:08;;;;;;;;;;;;;;;;;;2220068;66;1975;-74
2021/11/12 09:40:42;;;;;;;;;;;;;;;;;;2220037;58;1325;-74
2021/11/12 09:43:18;;;;;;;;;;;;;;;;;;2220568;66;1293;-74
2021/11/12 09:45:52;;;;;;;;;;;;;;;;;;2220046;58;1292;-74
2021/11/12 09:48:26;;;;;;;;;;;;;;;;;;2219305;59;1174;-74
2021/11/12 09:51:00;;;;;;;;;;;;;;;;;;2221554;66;1208;-74
2021/11/12 09:53:36;;;;;;;;;;;;;;;;;;2221314;66;1188;-74
2021/11/12 09:56:11;;;;;;;;;;;;;;;;;;2222214;58;1526;-74
2021/11/12 09:58:48;;;;;;;;;;;;;;;;;;2221440;66;1924;-74
2021/11/12 10:01:26;;;;;;;;;;;;;;;;;;2221116;66;1188;-74
2021/11/12 10:04:04;;;;;;;;;;;;;;;;;;2221597;66;1128;-74
2021/11/12 10:06:38;;;;;;;;;;;;;;;;;;2221147;66;1162;-73
2021/11/12 10:09:19;;;;;;;;;;;;;;;;;;2222407;66;1200;-74
2021/11/12 10:11:53;;;;;;;;;;;;;;;;;;2221364;58;1264;-74
2021/11/12 10:14:29;;;;;;;;;;;;;;;;;;2220934;66;1173;-74
2021/11/12 10:17:02;;;;;;;;;;;;;;;;;;2221145;58;1498;-74
2021/11/12 10:19:41;;;;;;;;;;;;;;;;;;2220108;59;2618;-74
2021/11/12 10:22:15;;;;;;;;;;;;;;;;;;2221682;58;2715;-75
2021/11/12 10:24:51;;;;;;;;;;;;;;;;;;2221681;66;1223;-75
2021/11/12 10:27:26;;;;;;;;;;;;;;;;;;2220089;66;1248;-74
2021/11/12 10:30:01;;;;;;;;;;;;;;;;;;2223672;58;2859;-74
2021/11/12 10:32:36;;;;;;;;;;;;;;;;;;2222051;66;1081;-75
2021/11/12 10:35:10;;;;;;;;;;;;;;;;;;2222458;58;1359;-74
2021/11/12 10:37:43;;;;;;;;;;;;;;;;;;2221064;58;1983;-74
2021/11/12 10:40:20;;;;;;;;;;;;;;;;;;2221997;66;1383;-74
2021/11/12 10:42:55;;;;;;;;;;;;;;;;;;2222113;59;1182;-74
2021/11/12 10:45:29;;;;;;;;;;;;;;;;;;2221331;58;1233;-74
2021/11/12 10:48:04;;;;;;;;;;;;;;;;;;2221695;59;1571;-74
2021/11/12 10:50:38;;;;;;;;;;;;;;;;;;2220775;66;1129;-74
2021/11/12 10:53:13;;;;;;;;;;;;;;;;;;2221458;66;1132;-74
2021/11/12 10:55:57;;;;;;;;;;;;;;;;;;2222345;66;1204;-74
2021/11/12 10:58:30;;;;;;;;;;;;;;;;;;2221293;66;1896;-74
2021/11/12 11:01:05;;;;;;;;;;;;;;;;;;2220845;59;1286;-74
2021/11/12 11:03:39;;;;;;;;;;;;;;;;;;2223437;58;1273;-74
2021/11/12 11:06:25;;;;;;;;;;;;;;;;;;2218496;58;1891;-74
2021/11/12 11:09:00;;;;;;;;;;;;;;;;;;2220465;58;2192;-74
2021/11/12 11:11:42;;;;;;;;;;;;;;;;;;2220910;58;1258;-74
2021/11/12 11:14:30;;;;;;;;;;;;;;;;;;2220882;58;1198;-74
2021/11/12 11:17:24;;;;;;;;;;;;;;;;;;2220841;58;1201;-74
2021/11/12 11:19:57;;;;;;;;;;;;;;;;;;2221455;59;2538;-76
2021/11/12 11:22:31;;;;;;;;;;;;;;;;;;2219345;58;2599;-75
2021/11/12 11:25:04;;;;;;;;;;;;;;;;;;2219036;58;1456;-74
2021/11/12 11:27:40;;;;;;;;;;;;;;;;;;2222402;58;1267;-74
2021/11/12 11:30:14;;;;;;;;;;;;;;;;;;2220669;59;1245;-74
2021/11/12 11:32:48;;;;;;;;;;;;;;;;;;2219691;58;1775;-74
2021/11/12 11:35:22;;;;;;;;;;;;;;;;;;2219763;58;1344;-74
2021/11/12 11:37:56;;;;;;;;;;;;;;;;;;2217819;58;1932;-74
2021/11/12 11:40:32;;;;;;;;;;;;;;;;;;2220872;58;1714;-74
2021/11/12 11:43:08;;;;;;;;;;;;;;;;;;2221000;58;1285;-74
2021/11/12 11:45:42;;;;;;;;;;;;;;;;;;2220297;66;1265;-74
2021/11/12 11:48:16;;;;;;;;;;;;;;;;;;2220583;66;1217;-74
2021/11/12 11:50:53;;;;;;;;;;;;;;;;;;2221329;59;1230;-74
2021/11/12 11:53:29;;;;;;;;;;;;;;;;;;2220200;66;1086;-74
2021/11/12 11:56:16;;;;;;;;;;;;;;;;;;2220827;58;1244;-74
2021/11/12 11:58:53;;;;;;;;;;;;;;;;;;2219728;58;1921;-74
2021/11/12 12:01:37;;;;;;;;;;;;;;;;;;2221333;58;1263;-74
2021/11/12 12:04:31;;;;;;;;;;;;;;;;;;2220239;58;2152;-74
2021/11/12 12:07:20;;;;;;;;;;;;;;;;;;2221508;58;1269;-75
2021/11/12 12:09:58;;;;;;;;;;;;;;;;;;2222550;66;1095;-74
2021/11/12 12:12:51;;;;;;;;;;;;;;;;;;2221075;58;1388;-74
2021/11/12 12:15:41;;;;;;;;;;;;;;;;;;2220309;59;1369;-73
2021/11/12 12:18:25;;;;;;;;;;;;;;;;;;2221457;66;1938;-74
2021/11/12 12:21:22;;;;;;;;;;;;;;;;;;2220325;58;2526;-74
2021/11/12 12:36:32;;;;;;;;;;;;;;;;;;2219840;58;1453;-74
2021/11/12 13:20:22;;;;;;;;;;;;;;;;;;2218104;66;1983;-75
2021/11/12 13:23:13;;;;;;;;;;;;;;;;;;2218137;58;2170;-75
2021/11/12 13:25:47;;;;;;;;;;;;;;;;;;2219411;58;1949;-74
2021/11/12 13:28:31;;;;;;;;;;;;;;;;;;2221056;66;1339;-75
2021/11/12 13:31:08;;;;;;;;;;;;;;;;;;2218108;58;1926;-74
2021/11/12 13:33:43;;;;;;;;;;;;;;;;;;2220782;58;1774;-74
2021/11/12 13:36:28;;;;;;;;;;;;;;;;;;2219956;58;1917;-74
2021/11/12 13:39:17;;;;;;;;;;;;;;;;;;2220536;58;2000;-75
2021/11/12 13:41:54;;;;;;;;;;;;;;;;;;2219077;58;2599;-74
2021/11/12 13:44:31;;;;;;;;;;;;;;;;;;2219899;66;1132;-75
2021/11/12 13:47:11;;;;;;;;;;;;;;;;;;2219622;58;2486;-75
2021/11/12 13:49:47;;;;;;;;;;;;;;;;;;2219556;59;2375;-75
2021/11/12 13:52:22;;;;;;;;;;;;;;;;;;2219737;58;2624;-75
2021/11/12 13:54:56;;;;;;;;;;;;;;;;;;2221365;63;1880;-76
2021/11/12 13:57:30;;;;;;;;;;;;;;;;;;2220814;66;1316;-76
2021/11/12 14:00:10;;;;;;;;;;;;;;;;;;2220905;58;2051;-75
2021/11/12 14:02:58;;;;;;;;;;;;;;;;;;2219641;59;1821;-75
2021/11/12 14:05:32;;;;;;;;;;;;;;;;;;2216728;59;1887;-75
2021/11/12 14:08:07;;;;;;;;;;;;;;;;;;2222260;66;1171;-75
2021/11/12 14:10:43;;;;;;;;;;;;;;;;;;2221197;59;1814;-75
2021/11/12 14:13:17;;;;;;;;;;;;;;;;;;2220211;66;1097;-74
2021/11/12 14:16:00;;;;;;;;;;;;;;;;;;2217103;59;1859;-74
2021/11/12 14:18:45;;;;;;;;;;;;;;;;;;2220988;58;1954;-74
2021/11/12 14:21:25;;;;;;;;;;;;;;;;;;2219708;58;1853;-75
2021/11/12 14:26:52;;;;;;;;;;;;;;;;;;2220231;58;1809;-75
2021/11/12 14:29:37;;;;;;;;;;;;;;;;;;2221558;66;1155;-75
2021/11/12 14:35:22;;;;;;;;;;;;;;;;;;2220759;58;1957;-75
2021/11/12 14:38:10;;;;;;;;;;;;;;;;;;2221257;66;1118;-74
2021/11/12 14:44:07;;;;;;;;;;;;;;;;;;2211952;59;1280;-75
2021/11/12 14:46:54;;;;;;;;;;;;;;;;;;2212372;59;2099;-74
2021/11/12 14:49:33;;;;;;;;;;;;;;;;;;2216430;58;1725;-69
2021/11/12 14:52:14;;;;;;;;;;;;;;;;;;2217735;58;2188;-70
2021/11/12 14:54:50;;;;;;;;;;;;;;;;;;2220875;58;1950;-69
2021/11/12 14:57:29;;;;;;;;;;;;;;;;;;2220963;58;1805;-70
2021/11/12 15:00:06;;;;;;;;;;;;;;;;;;2221335;66;1931;-69
2021/11/12 15:02:40;;;;;;;;;;;;;;;;;;2219506;59;2160;-69
2021/11/12 15:05:14;;;;;;;;;;;;;;;;;;2221067;58;1865;-70
2021/11/12 15:07:53;;;;;;;;;;;;;;;;;;2219215;66;1228;-69
2021/11/12 15:10:29;;;;;;;;;;;;;;;;;;2219658;58;1930;-69
2021/11/12 15:13:02;;;;;;;;;;;;;;;;;;2218974;66;2979;-70
2021/11/12 15:15:35;;;;;;;;;;;;;;;;;;2219623;58;2010;-69
2021/11/12 15:18:08;;;;;;;;;;;;;;;;;;2219688;59;1824;-70
2021/11/12 15:20:42;;;;;;;;;;;;;;;;;;2218114;66;1988;-69
2021/11/12 15:26:19;;;;;;;;;;;;;;;;;;2217801;58;2616;-69
2021/11/12 15:29:03;;;;;;;;;;;;;;;;;;2219689;66;1245;-70
2021/11/12 15:31:43;;;;;;;;;;;;;;;;;;2219778;58;1933;-69
2021/11/12 15:34:16;;;;;;;;;;;;;;;;;;2220247;59;1189;-69
2021/11/12 15:36:57;;;;;;;;;;;;;;;;;;2219916;58;1921;-69
2021/11/12 15:39:39;;;;;;;;;;;;;;;;;;2221067;66;1941;-70
2021/11/12 15:45:07;;;;;;;;;;;;;;;;;;2220982;58;1456;-70
2021/11/12 15:47:44;;;;;;;;;;;;;;;;;;2221858;58;1796;-69
2021/11/12 15:50:22;;;;;;;;;;;;;;;;;;2221523;58;1201;-69
2021/11/12 15:53:09;;;;;;;;;;;;;;;;;;2218689;58;2355;-70
2021/11/12 15:55:56;;;;;;;;;;;;;;;;;;2218036;58;2273;-69
2021/11/12 16:01:34;;;;;;;;;;;;;;;;;;2219534;66;1932;-70
2021/11/12 16:04:39;;;;;;;;;;;;;;;;;;2219131;58;1870;-69
2021/11/12 16:07:37;;;;;;;;;;;;;;;;;;2221960;66;2861;-69
2021/11/12 16:13:15;;;;;;;;;;;;;;;;;;2214508;59;2967;-69
2021/11/12 16:16:04;;;;;;;;;;;;;;;;;;2218808;59;1950;-69
2021/11/12 16:18:51;;;;;;;;;;;;;;;;;;2219337;59;2001;-69
2021/11/12 16:21:37;;;;;;;;;;;;;;;;;;2217748;58;1978;-70
2021/11/12 16:27:11;;;;;;;;;;;;;;;;;;2219314;58;2680;-69
2021/11/12 16:29:48;;;;;;;;;;;;;;;;;;2220984;66;1237;-69
2021/11/12 16:32:26;;;;;;;;;;;;;;;;;;2219299;66;1887;-69
2021/11/12 16:35:00;;;;;;;;;;;;;;;;;;2220102;58;1414;-69
2021/11/12 16:37:34;;;;;;;;;;;;;;;;;;2220338;58;2966;-69
2021/11/12 16:40:11;;;;;;;;;;;;;;;;;;2221140;58;2021;-69
2021/11/12 16:45:53;;;;;;;;;;;;;;;;;;2219657;66;2139;-69
2021/11/12 16:48:35;;;;;;;;;;;;;;;;;;2219245;58;1776;-69
2021/11/12 16:51:37;;;;;;;;;;;;;;;;;;2219736;58;2175;-69
2021/11/12 16:54:17;;;;;;;;;;;;;;;;;;2219795;58;2347;-69
2021/11/12 16:59:45;;;;;;;;;;;;;;;;;;2221295;58;1996;-69
2021/11/12 17:05:19;;;;;;;;;;;;;;;;;;2220476;66;2153;-69
2021/11/12 17:10:49;;;;;;;;;;;;;;;;;;2221098;58;2071;-69
2021/11/12 17:13:38;;;;;;;;;;;;;;;;;;2219561;66;1515;-69
2021/11/12 17:16:38;;;;;;;;;;;;;;;;;;2219736;58;2023;-69
2021/11/12 17:19:27;;;;;;;;;;;;;;;;;;2219169;58;1935;-69
2021/11/12 17:45:09;;;;;;;;;;;;;;;;;;2219956;66;1241;-69
2021/11/12 17:47:45;;;;;;;;;;;;;;;;;;2220932;58;1906;-70
2021/11/12 17:50:23;;;;;;;;;;;;;;;;;;2219134;59;1029;-70
2021/11/12 17:53:22;;;;;;;;;;;;;;;;;;2220561;58;1932;-70
2021/11/12 18:04:30;;;;;;;;;;;;;;;;;;2219136;58;1857;-70
2021/11/12 18:07:14;;;;;;;;;;;;;;;;;;2220414;58;1799;-70
2021/11/12 18:10:12;;;;;;;;;;;;;;;;;;2220797;66;1309;-69
2021/11/12 21:46:14;;;;;;;;;;;;;;;;;;2204915;59;1344;-68
2021/11/12 21:48:52;;;;;;;;;;;;;;;;;;2205523;59;1288;-68
2021/11/12 21:51:28;;;;;;;;;;;;;;;;;;2204689;58;1965;-68
2021/11/12 21:54:05;;;;;;;;;;;;;;;;;;2204736;66;1210;-68
2021/11/12 21:56:38;;;;;;;;;;;;;;;;;;2205513;66;1100;-67
2021/11/12 21:59:11;;;;;;;;;;;;;;;;;;2203556;66;2843;-68
2021/11/12 22:01:45;;;;;;;;;;;;;;;;;;2204735;59;1985;-68
2021/11/12 22:04:20;;;;;;;;;;;;;;;;;;2204273;59;1331;-68
2021/11/12 22:06:55;;;;;;;;;;;;;;;;;;2204514;58;2024;-68
2021/11/12 22:09:33;;;;;;;;;;;;;;;;;;2202922;59;2230;-68
2021/11/12 22:12:07;;;;;;;;;;;;;;;;;;2201975;58;2578;-68
2021/11/12 22:14:40;;;;;;;;;;;;;;;;;;2204082;59;1924;-68
2021/11/12 22:17:13;;;;;;;;;;;;;;;;;;2205155;58;1277;-68
2021/11/12 22:19:47;;;;;;;;;;;;;;;;;;2205874;59;1376;-67
2021/11/12 22:22:20;;;;;;;;;;;;;;;;;;2205168;59;1989;-68
2021/11/12 22:24:56;;;;;;;;;;;;;;;;;;2206126;67;1216;-68
2021/11/12 22:27:29;;;;;;;;;;;;;;;;;;2206034;59;1352;-67
2021/11/12 22:30:02;;;;;;;;;;;;;;;;;;2206278;59;1425;-67
2021/11/12 22:32:35;;;;;;;;;;;;;;;;;;2205940;59;2427;-67
2021/11/12 22:35:09;;;;;;;;;;;;;;;;;;2203466;58;2165;-67
2021/11/12 22:37:43;;;;;;;;;;;;;;;;;;2206298;58;2477;-67
2021/11/12 22:40:19;;;;;;;;;;;;;;;;;;2204939;59;2298;-67
2021/11/12 22:42:52;;;;;;;;;;;;;;;;;;2206140;59;2527;-67
2021/11/12 22:45:25;;;;;;;;;;;;;;;;;;2206584;58;2371;-68
2021/11/12 22:47:58;;;;;;;;;;;;;;;;;;2206260;59;2289;-68
2021/11/12 22:50:31;;;;;;;;;;;;;;;;;;2205816;59;1284;-68
2021/11/12 22:53:05;;;;;;;;;;;;;;;;;;2205199;59;1315;-68
2021/11/12 22:55:41;;;;;;;;;;;;;;;;;;2205845;59;2413;-68
2021/11/12 22:58:14;;;;;;;;;;;;;;;;;;2205416;59;2389;-67
2021/11/12 23:01:02;;;;;;;;;;;;;;;;;;2206023;59;2320;-68
2021/11/12 23:03:35;;;;;;;;;;;;;;;;;;2204980;59;2938;-67
2021/11/12 23:06:09;;;;;;;;;;;;;;;;;;2205431;59;1498;-68
2021/11/12 23:08:42;;;;;;;;;;;;;;;;;;2204794;59;1195;-68
2021/11/12 23:11:18;;;;;;;;;;;;;;;;;;2205095;66;1259;-68
2021/11/12 23:13:52;;;;;;;;;;;;;;;;;;2204255;59;1197;-68
2021/11/12 23:16:25;;;;;;;;;;;;;;;;;;2204041;67;1168;-68
2021/11/12 23:18:58;;;;;;;;;;;;;;;;;;2205335;59;1504;-68
2021/11/12 23:21:31;;;;;;;;;;;;;;;;;;2205205;58;1973;-68
2021/11/12 23:24:04;;;;;;;;;;;;;;;;;;2206016;59;1715;-68
2021/11/12 23:26:40;;;;;;;;;;;;;;;;;;2205145;67;1147;-68
2021/11/12 23:29:13;;;;;;;;;;;;;;;;;;2206410;67;1226;-68
2021/11/12 23:31:47;;;;;;;;;;;;;;;;;;2205314;58;1243;-68
2021/11/12 23:34:20;;;;;;;;;;;;;;;;;;2206297;58;1261;-68
2021/11/12 23:36:53;;;;;;;;;;;;;;;;;;2206081;58;1402;-68
2021/11/12 23:39:26;;;;;;;;;;;;;;;;;;2207218;58;1195;-67
2021/11/12 23:42:02;;;;;;;;;;;;;;;;;;2204977;66;1991;-68
2021/11/12 23:44:35;;;;;;;;;;;;;;;;;;2206024;67;1289;-68
2021/11/12 23:47:08;;;;;;;;;;;;;;;;;;2209362;66;1297;-67
2021/11/12 23:49:42;;;;;;;;;;;;;;;;;;2205984;59;1211;-67
2021/11/12 23:52:15;;;;;;;;;;;;;;;;;;2206003;58;1250;-68
2021/11/12 23:54:49;;;;;;;;;;;;;;;;;;2205798;66;1207;-68
2021/11/12 23:57:25;;;;;;;;;;;;;;;;;;2205725;66;1186;-68
2021/11/12 23:59:58;;;;;;;;;;;;;;;;;;2205829;59;2263;-67
